Jago, Mississippi
Current Conditions -  °F | °C
As of 1:54 AM on Thursday 27 Nov 2014 (Local Time) from KMEM Reporting Station
Few Clouds Few Clouds  
Wind Chill: 33°   Ceiling: Unl
Heat Index: 41°   Visibility: 10mi
Dew Point: 28°   Wind: 16mph
Humidity: 60%   Direction: 300°WNW
Pressure: 30.26"   Gusts: 23mph
Location:  34.9498°N, 90.0305°W
Report Text: KMEM 270754Z 30014G20KT 10SM FEW070 05/M02 A3026 RMK AO2 SLP248 T00501022 $
Loading
Personal Weather Stations






























Interactive Weather Map New forecast layout! Learn more

10-Day Weather Forecast

Advertisements
Track Severe Weather on mobile